createdAt,value
2022-12-17T00:00:34.091Z,101324.06
2022-12-17T00:03:19.782Z,101329.97
2022-12-17T00:06:05.004Z,101328.13
2022-12-17T00:08:50.944Z,101327.66
2022-12-17T00:11:35.919Z,101322.22
2022-12-17T00:14:21.318Z,101326.22
2022-12-17T00:17:06.181Z,101328.34
2022-12-17T00:19:51.118Z,101336.53
2022-12-17T00:22:36.841Z,101327.94
2022-12-17T00:25:22.261Z,101344.25
2022-12-17T00:28:07.061Z,101346.97
2022-12-17T00:30:51.918Z,101358.34
2022-12-17T00:33:37.660Z,101354.41
2022-12-17T00:36:23.214Z,101351.13
2022-12-17T00:39:08.050Z,101352.66
2022-12-17T00:41:53.203Z,101367.59
2022-12-17T00:44:38.691Z,101359.75
2022-12-17T00:47:23.777Z,101360.63
2022-12-17T00:50:10.167Z,101359.19
2022-12-17T00:52:55.131Z,101357.00
2022-12-17T00:55:41.181Z,101362.41
2022-12-17T00:58:26.191Z,101368.38
2022-12-17T01:01:11.296Z,101374.09
2022-12-17T01:03:56.666Z,101378.22
2022-12-17T01:06:41.909Z,101378.06
2022-12-17T01:09:26.720Z,101381.03
2022-12-17T01:12:12.086Z,101385.50
2022-12-17T01:14:56.838Z,101387.75
2022-12-17T01:17:49.275Z,101386.75
2022-12-17T01:20:34.156Z,101389.09
2022-12-17T01:23:19.081Z,101396.22
2022-12-17T01:26:11.652Z,101391.91
2022-12-17T01:28:56.544Z,101386.78
2022-12-17T01:31:41.619Z,101395.47
2022-12-17T01:34:28.232Z,101400.59
2022-12-17T01:37:13.537Z,101389.88
2022-12-17T01:39:58.288Z,101382.53
2022-12-17T01:42:43.699Z,101391.84
2022-12-17T01:45:33.203Z,101400.75
2022-12-17T01:48:21.858Z,101398.28
2022-12-17T01:51:11.022Z,101405.38
2022-12-17T01:54:10.593Z,101403.66
2022-12-17T01:56:57.046Z,101416.59
2022-12-17T02:00:03.890Z,101420.69
2022-12-17T02:02:48.782Z,101419.44
2022-12-17T02:05:34.145Z,101419.47
2022-12-17T02:09:02.083Z,101427.09
2022-12-17T02:12:26.869Z,101419.94
2022-12-17T02:15:34.862Z,101424.97
2022-12-17T02:18:24.777Z,101422.56
2022-12-17T02:21:10.992Z,101427.41
2022-12-17T02:24:02.718Z,101435.16
2022-12-17T02:27:13.881Z,101434.44
2022-12-17T02:30:08.805Z,101433.28
2022-12-17T02:32:56.320Z,101429.53
2022-12-17T02:35:48.809Z,101425.06
2022-12-17T02:38:44.612Z,101429.56
2022-12-17T02:41:36.053Z,101425.44
2022-12-17T02:44:21.414Z,101439.50
2022-12-17T02:47:07.178Z,101453.53
2022-12-17T02:49:53.275Z,101442.41
2022-12-17T02:52:39.779Z,101449.75
2022-12-17T02:55:25.192Z,101446.59
2022-12-17T02:58:10.582Z,101441.69
2022-12-17T03:00:58.037Z,101446.94
2022-12-17T03:03:48.729Z,101445.94
2022-12-17T03:07:13.752Z,101452.66
2022-12-17T03:10:44.494Z,101446.88
2022-12-17T03:13:29.398Z,101450.16
2022-12-17T03:16:15.371Z,101448.88
2022-12-17T03:19:00.566Z,101450.56
2022-12-17T03:21:45.325Z,101448.00
2022-12-17T03:24:30.478Z,101447.09
2022-12-17T03:27:15.972Z,101448.09
2022-12-17T03:30:01.117Z,101447.19
2022-12-17T03:32:46.024Z,101447.94
2022-12-17T03:35:30.918Z,101442.84
2022-12-17T03:38:15.926Z,101455.03
2022-12-17T03:41:00.668Z,101452.19
2022-12-17T03:43:45.632Z,101457.91
2022-12-17T03:46:30.525Z,101456.00
2022-12-17T03:49:15.668Z,101461.63
2022-12-17T03:52:01.315Z,101456.69
2022-12-17T03:54:46.354Z,101457.78
2022-12-17T03:57:31.312Z,101461.03
2022-12-17T04:00:16.091Z,101461.44
2022-12-17T04:03:00.954Z,101460.13
2022-12-17T04:05:46.246Z,101463.31
2022-12-17T04:08:31.129Z,101465.59
2022-12-17T04:11:15.893Z,101465.03
2022-12-17T04:14:00.637Z,101475.34
2022-12-17T04:16:45.969Z,101480.84
2022-12-17T04:19:31.361Z,101477.81
2022-12-17T04:22:16.113Z,101475.94
2022-12-17T04:25:00.922Z,101477.97
2022-12-17T04:27:46.128Z,101484.91
2022-12-17T04:30:31.197Z,101483.44
2022-12-17T04:33:16.120Z,101489.75
2022-12-17T04:36:00.961Z,101492.22
2022-12-17T04:38:45.944Z,101497.38
2022-12-17T04:41:31.221Z,101492.53
2022-12-17T04:44:19.509Z,101490.84
2022-12-17T04:47:04.280Z,101497.91
2022-12-17T04:49:49.702Z,101509.94
2022-12-17T04:52:34.559Z,101510.03
2022-12-17T04:55:20.129Z,101510.59
2022-12-17T04:58:04.872Z,101506.88
2022-12-17T05:00:49.772Z,101503.16
2022-12-17T05:03:36.038Z,101512.59
2022-12-17T05:06:22.108Z,101518.22
2022-12-17T05:09:07.026Z,101510.38
2022-12-17T05:11:51.872Z,101515.38
2022-12-17T05:14:37.160Z,101524.28
2022-12-17T05:17:22.407Z,101523.25
2022-12-17T05:20:07.407Z,101514.25
2022-12-17T05:22:52.184Z,101518.47
2022-12-17T05:25:37.065Z,101523.25
2022-12-17T05:28:22.192Z,101524.50
2022-12-17T05:31:11.709Z,101533.34
2022-12-17T05:33:58.693Z,101526.53
2022-12-17T05:36:44.236Z,101528.41
2022-12-17T05:39:34.041Z,101530.91
2022-12-17T05:42:20.961Z,101537.75
2022-12-17T05:45:06.209Z,101545.56
2022-12-17T05:47:51.202Z,101546.25
2022-12-17T05:50:36.065Z,101551.41
2022-12-17T05:53:25.309Z,101561.81
2022-12-17T05:56:11.284Z,101565.94
2022-12-17T05:58:56.995Z,101574.50
2022-12-17T06:01:42.131Z,101580.75
2022-12-17T06:04:29.832Z,101582.81
2022-12-17T06:07:15.070Z,101596.03
2022-12-17T06:09:59.991Z,101590.19
2022-12-17T06:12:44.700Z,101594.34
2022-12-17T06:15:29.566Z,101601.19
2022-12-17T06:18:17.118Z,101606.13
2022-12-17T06:21:02.876Z,101601.41
2022-12-17T06:23:48.042Z,101605.44
2022-12-17T06:26:33.036Z,101601.28
2022-12-17T06:29:17.954Z,101611.38
2022-12-17T06:32:02.937Z,101601.50
2022-12-17T06:34:47.876Z,101615.53
2022-12-17T06:37:32.601Z,101610.84
2022-12-17T06:40:17.417Z,101619.09
2022-12-17T06:43:13.751Z,101613.38
2022-12-17T06:45:59.432Z,101625.63
2022-12-17T06:48:44.234Z,101621.38
2022-12-17T06:51:29.676Z,101625.03
2022-12-17T06:54:14.840Z,101623.94
2022-12-17T06:56:59.997Z,101622.16
2022-12-17T06:59:45.122Z,101635.91
2022-12-17T07:02:30.338Z,101631.22
2022-12-17T07:05:15.438Z,101628.66
2022-12-17T07:08:00.761Z,101638.50
2022-12-17T07:10:45.672Z,101634.34
2022-12-17T07:13:30.453Z,101641.09
2022-12-17T07:16:15.392Z,101648.94
2022-12-17T07:19:00.514Z,101653.88
2022-12-17T07:21:45.805Z,101656.34
2022-12-17T07:24:30.660Z,101659.38
2022-12-17T07:27:15.833Z,101666.13
2022-12-17T07:30:00.962Z,101670.81
2022-12-17T07:32:45.798Z,101672.50
2022-12-17T07:35:30.736Z,101678.81
2022-12-17T07:38:19.667Z,101688.91
2022-12-17T07:41:04.929Z,101685.53
2022-12-17T07:43:53.216Z,101690.13
2022-12-17T07:46:38.483Z,101690.91
2022-12-17T07:49:25.879Z,101690.03
2022-12-17T07:52:11.219Z,101689.47
2022-12-17T07:54:55.954Z,101693.28
2022-12-17T07:57:40.818Z,101702.47
2022-12-17T08:00:26.409Z,101694.59
2022-12-17T08:03:20.047Z,101698.94
2022-12-17T08:06:05.233Z,101701.69
2022-12-17T08:08:50.174Z,101696.19
2022-12-17T08:11:34.999Z,101695.84
2022-12-17T08:14:31.024Z,101690.25
2022-12-17T08:17:32.703Z,101689.84
2022-12-17T08:20:19.186Z,101693.38
2022-12-17T08:23:06.631Z,101694.75
2022-12-17T08:25:58.129Z,101697.41
2022-12-17T08:28:51.285Z,101694.97
2022-12-17T08:31:36.563Z,101691.81
2022-12-17T08:34:21.466Z,101709.28
2022-12-17T08:37:06.330Z,101709.41
2022-12-17T08:39:52.811Z,101706.38
2022-12-17T08:42:38.851Z,101708.84
2022-12-17T08:45:24.717Z,101704.22
2022-12-17T08:48:10.320Z,101703.50
2022-12-17T08:50:55.105Z,101710.41
2022-12-17T08:53:40.417Z,101704.94
2022-12-17T08:56:25.838Z,101709.06
2022-12-17T08:59:10.736Z,101713.00
2022-12-17T09:01:56.087Z,101710.78
2022-12-17T09:04:41.378Z,101714.53
2022-12-17T09:07:26.566Z,101712.38
2022-12-17T09:10:22.174Z,101713.59
2022-12-17T09:13:09.078Z,101709.75
2022-12-17T09:15:53.996Z,101711.28
2022-12-17T09:18:40.039Z,101702.81
2022-12-17T09:21:26.431Z,101713.53
2022-12-17T09:24:11.852Z,101714.28
2022-12-17T09:26:57.109Z,101709.53
2022-12-17T09:29:41.928Z,101712.63
2022-12-17T09:32:26.785Z,101708.19
2022-12-17T09:35:11.829Z,101715.34
2022-12-17T09:37:56.757Z,101713.78
2022-12-17T09:40:43.138Z,101713.59
2022-12-17T09:43:43.505Z,101726.72
2022-12-17T09:46:53.786Z,101722.59
2022-12-17T09:49:43.108Z,101720.31
2022-12-17T09:52:40.003Z,101727.56
2022-12-17T09:55:47.061Z,101722.09
2022-12-17T09:58:43.228Z,101730.25
2022-12-17T10:01:38.229Z,101733.66
2022-12-17T10:04:48.373Z,101729.41
2022-12-17T10:07:45.007Z,101735.44
2022-12-17T10:10:45.409Z,101731.81
2022-12-17T10:13:49.152Z,101731.94
2022-12-17T10:16:44.121Z,101723.56
2022-12-17T10:19:34.010Z,101730.81
2022-12-17T10:22:27.234Z,101729.19
2022-12-17T10:25:12.132Z,101725.97
2022-12-17T10:27:56.962Z,101729.81
2022-12-17T10:30:46.059Z,101731.31
2022-12-17T10:33:37.754Z,101733.91
2022-12-17T10:36:36.730Z,101740.41
2022-12-17T10:39:22.304Z,101736.44
2022-12-17T10:42:07.246Z,101740.28
2022-12-17T10:44:56.193Z,101740.66
2022-12-17T10:47:45.665Z,101740.66
2022-12-17T10:50:51.377Z,101735.91
2022-12-17T10:53:38.844Z,101731.19
2022-12-17T10:56:24.398Z,101727.03
2022-12-17T10:59:12.560Z,101715.31
2022-12-17T11:01:58.857Z,101731.25
2022-12-17T11:04:51.376Z,101733.06
2022-12-17T11:07:40.954Z,101736.03
2022-12-17T11:10:44.410Z,101726.97
2022-12-17T11:13:46.634Z,101722.72
2022-12-17T11:16:39.825Z,101723.97
2022-12-17T11:19:28.144Z,101728.19
2022-12-17T11:22:16.656Z,101729.53
2022-12-17T11:25:18.174Z,101731.16
2022-12-17T11:28:08.005Z,101743.28
2022-12-17T11:31:00.871Z,101735.81
2022-12-17T11:33:51.311Z,101729.31
2022-12-17T11:36:47.802Z,101724.50
2022-12-17T11:39:36.691Z,101742.31
2022-12-17T11:42:30.248Z,101730.69
2022-12-17T11:45:27.516Z,101744.34
2022-12-17T11:48:18.609Z,101740.28
2022-12-17T11:51:11.943Z,101746.59
2022-12-17T11:53:57.045Z,101742.94
2022-12-17T11:56:49.579Z,101745.75
2022-12-17T11:59:52.850Z,101748.75
2022-12-17T12:02:42.597Z,101750.84
2022-12-17T12:05:57.006Z,101751.25
2022-12-17T12:08:45.765Z,101750.53
2022-12-17T12:11:54.228Z,101756.59
2022-12-17T12:14:42.682Z,101755.81
2022-12-17T12:17:46.628Z,101754.16
2022-12-17T12:20:50.238Z,101759.13
2022-12-17T12:23:51.125Z,101754.63
2022-12-17T12:27:08.072Z,101750.47
2022-12-17T12:29:59.267Z,101747.81
2022-12-17T12:32:53.997Z,101757.06
2022-12-17T12:35:42.717Z,101747.72
2022-12-17T12:38:39.461Z,101750.53
2022-12-17T12:41:57.532Z,101749.44
2022-12-17T12:44:53.636Z,101755.19
2022-12-17T12:47:46.505Z,101755.00
2022-12-17T12:50:48.841Z,101752.69
2022-12-17T12:53:33.852Z,101758.09
2022-12-17T12:56:19.061Z,101748.84
2022-12-17T12:59:03.941Z,101752.13
2022-12-17T13:01:54.523Z,101757.69
2022-12-17T13:05:00.890Z,101756.69
2022-12-17T13:07:29.464Z,101774.09
2022-12-17T13:09:59.253Z,101765.88
2022-12-17T13:12:43.444Z,101766.66
2022-12-17T13:15:18.481Z,101771.50
2022-12-17T13:17:56.175Z,101770.38
2022-12-17T13:20:33.836Z,101769.78
2022-12-17T13:23:25.878Z,101767.81
2022-12-17T13:26:11.247Z,101777.41
2022-12-17T13:28:38.931Z,101771.31
2022-12-17T13:31:15.503Z,101779.91
2022-12-17T13:33:51.168Z,101784.53
2022-12-17T13:36:40.749Z,101776.78
2022-12-17T13:39:37.272Z,101785.69
2022-12-17T13:42:03.881Z,101785.13
2022-12-17T13:44:39.654Z,101795.25
2022-12-17T13:47:07.491Z,101799.88
2022-12-17T13:49:33.998Z,101808.91
2022-12-17T13:52:21.690Z,101810.84
2022-12-17T13:54:48.267Z,101811.44
2022-12-17T13:57:23.745Z,101814.16
2022-12-17T13:59:52.234Z,101807.22
2022-12-17T14:02:30.627Z,101816.09
2022-12-17T14:05:02.840Z,101810.84
2022-12-17T14:07:35.298Z,101823.44
2022-12-17T14:10:02.709Z,101817.78
2022-12-17T14:12:29.994Z,101821.13
2022-12-17T14:15:08.542Z,101817.53
2022-12-17T14:17:34.864Z,101823.16
2022-12-17T14:20:08.531Z,101826.09
2022-12-17T14:22:38.159Z,101827.13
2022-12-17T14:25:06.846Z,101825.78
2022-12-17T14:27:35.929Z,101829.97
2022-12-17T14:30:04.450Z,101840.06
2022-12-17T14:32:36.390Z,101846.56
2022-12-17T14:35:03.534Z,101838.50
2022-12-17T14:37:30.420Z,101853.25
2022-12-17T14:40:02.175Z,101855.13
2022-12-17T14:42:29.671Z,101861.66
2022-12-17T14:45:06.910Z,101866.59
2022-12-17T14:47:35.496Z,101857.06
2022-12-17T14:50:07.218Z,101866.72
2022-12-17T14:52:40.225Z,101863.22
2022-12-17T14:55:35.707Z,101855.78
2022-12-17T14:58:14.739Z,101862.31
2022-12-17T15:00:51.653Z,101871.69
2022-12-17T15:03:21.520Z,101875.38
2022-12-17T15:05:52.915Z,101881.78
2022-12-17T15:08:20.178Z,101883.81
2022-12-17T15:10:46.606Z,101896.47
2022-12-17T15:13:13.356Z,101897.72
2022-12-17T15:15:40.049Z,101891.19
2022-12-17T15:18:06.539Z,101891.63
2022-12-17T15:20:33.059Z,101900.19
2022-12-17T15:23:01.484Z,101898.41
2022-12-17T15:25:27.898Z,101894.16
2022-12-17T15:27:55.873Z,101892.56
2022-12-17T15:30:22.446Z,101900.44
2022-12-17T15:32:50.431Z,101903.03
2022-12-17T15:35:17.021Z,101906.97
2022-12-17T15:37:43.465Z,101898.00
2022-12-17T15:40:11.871Z,101900.56
2022-12-17T15:43:06.448Z,101906.06
2022-12-17T15:45:33.219Z,101909.53
2022-12-17T15:47:59.668Z,101910.13
2022-12-17T15:50:28.573Z,101907.66
2022-12-17T15:52:55.021Z,101926.19
2022-12-17T15:55:21.755Z,101908.31
2022-12-17T15:57:48.237Z,101914.84
2022-12-17T16:00:15.083Z,101914.25
2022-12-17T16:02:41.689Z,101910.91
2022-12-17T16:05:08.626Z,101916.50
2022-12-17T16:07:35.372Z,101924.84
2022-12-17T16:10:05.363Z,101922.16
2022-12-17T16:12:33.174Z,101923.13
2022-12-17T16:14:59.643Z,101929.53
2022-12-17T16:17:26.076Z,101929.63
2022-12-17T16:19:52.580Z,101929.72
2022-12-17T16:22:19.052Z,101933.44
2022-12-17T16:24:45.681Z,101941.13
2022-12-17T16:27:12.827Z,101936.19
2022-12-17T16:29:39.318Z,101946.97
2022-12-17T16:32:05.786Z,101946.28
2022-12-17T16:34:32.276Z,101934.94
2022-12-17T16:36:59.459Z,101949.75
2022-12-17T16:39:25.876Z,101945.34
2022-12-17T16:41:52.581Z,101954.25
2022-12-17T16:44:20.225Z,101953.94
2022-12-17T16:46:46.796Z,101948.91
2022-12-17T16:49:24.824Z,101957.56
2022-12-17T16:51:51.986Z,101960.16
2022-12-17T16:54:21.890Z,101958.44
2022-12-17T16:56:50.366Z,101970.97
2022-12-17T16:59:17.185Z,101969.63
2022-12-17T17:01:46.603Z,101973.84
2022-12-17T17:04:15.364Z,101969.25
2022-12-17T17:06:47.201Z,101976.13
2022-12-17T17:09:14.319Z,101977.50
2022-12-17T17:11:44.804Z,101984.72
2022-12-17T17:14:14.983Z,101995.47
2022-12-17T17:16:41.418Z,101993.03
2022-12-17T17:19:11.011Z,101993.50
2022-12-17T17:21:42.102Z,102000.03
2022-12-17T17:24:13.164Z,101997.41
2022-12-17T17:26:43.879Z,102008.66
2022-12-17T17:29:10.908Z,102007.13
2022-12-17T17:32:09.920Z,102009.78
2022-12-17T17:34:24.752Z,102015.69
2022-12-17T17:36:51.407Z,102015.25
2022-12-17T17:39:17.856Z,102019.50
2022-12-17T17:41:44.354Z,102015.97
2022-12-17T17:44:12.618Z,102016.81
2022-12-17T17:46:39.665Z,102017.25
2022-12-17T17:49:07.895Z,102006.66
2022-12-17T17:54:29.353Z,102028.81
2022-12-17T17:56:55.889Z,102035.06
2022-12-17T17:59:29.490Z,102028.25
2022-12-17T18:01:59.768Z,102035.53
2022-12-17T18:04:26.414Z,102042.06
2022-12-17T18:07:23.811Z,102039.75
2022-12-17T18:09:39.429Z,102038.41
2022-12-17T18:12:28.026Z,102044.41
2022-12-17T18:17:46.539Z,102056.31
2022-12-17T18:20:14.564Z,102052.34
2022-12-17T18:22:41.080Z,102047.81
2022-12-17T18:25:07.743Z,102062.09
2022-12-17T18:27:34.235Z,102063.47
2022-12-17T18:30:04.499Z,102058.69
2022-12-17T18:32:31.552Z,102058.13
2022-12-17T18:34:58.129Z,102070.63
2022-12-17T18:37:26.711Z,102067.25
2022-12-17T18:39:53.404Z,102070.00
2022-12-17T18:42:38.410Z,102074.09
2022-12-17T18:45:05.400Z,102071.69
2022-12-17T18:47:34.363Z,102070.22
2022-12-17T18:50:00.838Z,102078.69
2022-12-17T18:52:27.372Z,102075.47
2022-12-17T18:54:55.440Z,102091.69
2022-12-17T18:57:25.143Z,102087.63
2022-12-17T18:59:53.242Z,102094.56
2022-12-17T19:02:20.278Z,102099.25
2022-12-17T19:04:47.257Z,102099.84
2022-12-17T19:07:13.772Z,102095.09
2022-12-17T19:09:42.665Z,102099.63
2022-12-17T19:12:12.280Z,102096.63
2022-12-17T19:14:38.714Z,102103.88
2022-12-17T19:17:05.975Z,102099.22
2022-12-17T19:19:34.816Z,102103.69
2022-12-17T19:22:03.479Z,102104.47
2022-12-17T19:24:32.354Z,102112.78
2022-12-17T19:27:00.923Z,102112.72
2022-12-17T19:29:27.470Z,102104.41
2022-12-17T19:31:56.137Z,102104.91
2022-12-17T19:34:22.927Z,102108.31
2022-12-17T19:36:50.746Z,102108.63
2022-12-17T19:39:19.457Z,102109.84
2022-12-17T19:41:45.937Z,102109.78
2022-12-17T19:44:20.083Z,102113.72
2022-12-17T19:46:46.852Z,102110.94
2022-12-17T19:49:15.598Z,102124.69
2022-12-17T19:51:47.201Z,102122.34
2022-12-17T19:54:15.597Z,102133.75
2022-12-17T19:56:45.097Z,102134.78
2022-12-17T19:59:13.356Z,102147.09
2022-12-17T20:01:45.391Z,102133.69
2022-12-17T20:04:16.577Z,102138.88
2022-12-17T20:06:48.953Z,102139.88
2022-12-17T20:09:17.430Z,102134.22
2022-12-17T20:11:46.050Z,102138.13
2022-12-17T20:14:26.667Z,102139.66
2022-12-17T20:16:58.087Z,102141.88
2022-12-17T20:19:33.357Z,102153.97
2022-12-17T20:22:01.216Z,102148.59
2022-12-17T20:24:31.518Z,102145.31
2022-12-17T20:26:58.646Z,102160.59
2022-12-17T20:29:25.445Z,102165.28
2022-12-17T20:31:56.622Z,102165.31
2022-12-17T20:34:24.163Z,102158.25
2022-12-17T20:36:52.142Z,102153.56
2022-12-17T20:39:23.236Z,102167.06
2022-12-17T20:41:52.950Z,102166.28
2022-12-17T20:44:26.222Z,102171.63
2022-12-17T20:46:53.140Z,102167.09
2022-12-17T20:49:19.725Z,102168.84
2022-12-17T20:51:46.740Z,102170.69
2022-12-17T20:54:13.564Z,102177.88
2022-12-17T20:56:41.027Z,102183.66
2022-12-17T20:59:09.466Z,102179.25
2022-12-17T21:01:36.946Z,102182.28
2022-12-17T21:04:04.058Z,102187.00
2022-12-17T21:06:38.919Z,102185.69
2022-12-17T21:09:05.688Z,102190.47
2022-12-17T21:11:33.603Z,102191.91
2022-12-17T21:14:03.439Z,102190.56
2022-12-17T21:16:31.064Z,102199.63
2022-12-17T21:18:59.549Z,102193.94
2022-12-17T21:21:28.564Z,102190.19
2022-12-17T21:23:55.579Z,102191.38
2022-12-17T21:26:24.418Z,102194.59
2022-12-17T21:28:52.816Z,102195.72
2022-12-17T21:31:22.781Z,102201.09
2022-12-17T21:33:50.788Z,102210.41
2022-12-17T21:36:19.834Z,102210.19
2022-12-17T21:38:47.076Z,102211.81
2022-12-17T21:41:19.521Z,102201.91
2022-12-17T21:43:46.205Z,102200.53
2022-12-17T21:46:13.051Z,102209.63
2022-12-17T21:48:42.585Z,102205.69
2022-12-17T21:51:11.541Z,102208.84
2022-12-17T21:53:42.331Z,102201.13
2022-12-17T21:56:13.991Z,102206.47
2022-12-17T21:58:41.958Z,102193.22
2022-12-17T22:01:18.383Z,102205.09
2022-12-17T22:03:46.608Z,102205.50
2022-12-17T22:06:16.610Z,102208.06
2022-12-17T22:08:44.510Z,102203.31
2022-12-17T22:11:13.067Z,102213.59
2022-12-17T22:14:07.493Z,102218.75
2022-12-17T22:16:49.891Z,102218.34
2022-12-17T22:19:23.054Z,102221.72
2022-12-17T22:21:57.678Z,102209.63
2022-12-17T22:24:25.805Z,102232.59
2022-12-17T22:26:59.992Z,102229.44
2022-12-17T22:29:47.118Z,102234.97
2022-12-17T22:32:34.344Z,102228.66
2022-12-17T22:35:51.368Z,102234.97
2022-12-17T22:42:01.392Z,102244.88
2022-12-17T22:44:38.322Z,102246.25
2022-12-17T22:44:42.780Z,102248.03
2022-12-17T22:46:21.104Z,102247.81
2022-12-17T22:48:47.658Z,102247.03
2022-12-17T22:51:16.921Z,102248.59
2022-12-17T22:53:52.310Z,102249.16
2022-12-17T22:56:27.274Z,102244.44
2022-12-17T22:59:06.646Z,102250.16
2022-12-17T23:01:34.505Z,102250.97
2022-12-17T23:04:02.630Z,102256.47
2022-12-17T23:06:29.230Z,102261.44
2022-12-17T23:08:55.892Z,102269.38
2022-12-17T23:11:23.998Z,102268.38
2022-12-17T23:13:51.046Z,102267.81
2022-12-17T23:16:17.908Z,102264.63
2022-12-17T23:18:45.342Z,102265.56
2022-12-17T23:21:22.190Z,102274.25
2022-12-17T23:23:48.704Z,102268.13
2022-12-17T23:26:20.765Z,102279.19
2022-12-17T23:28:47.265Z,102280.78
2022-12-17T23:31:18.866Z,102278.19
2022-12-17T23:33:46.174Z,102283.56
2022-12-17T23:36:19.465Z,102284.94
2022-12-17T23:38:47.232Z,102281.59
2022-12-17T23:41:15.731Z,102283.16
2022-12-17T23:43:42.534Z,102283.75
2022-12-17T23:46:09.952Z,102286.75
2022-12-17T23:48:44.804Z,102285.94
2022-12-17T23:51:14.326Z,102288.91
2022-12-17T23:53:41.420Z,102291.03
2022-12-17T23:56:16.962Z,102287.66
2022-12-17T23:58:45.623Z,102296.31
